Garvin, Oklahoma
Current Conditions -  °F | °C
As of 5:55 PM on Wednesday 22 Oct 2014 (Local Time) from K4O4 Reporting Station
Clear Clear  
Wind Chill: 73°   Ceiling: Unl
Heat Index: 73°   Visibility: 10mi
Dew Point: 52°   Wind: 5mph
Humidity: 47%   Direction: 110°ESE
Pressure: 30.12"   Gusts: NA
Location:  33.95°N, 94.94°W
Report Text: K4O4 222255Z AUTO 11004KT 10SM CLR 23/11 A3012 RMK AO2
Loading
Personal Weather Stations






























Interactive Weather Map
Tropical Storm Tracking
New forecast layout! Learn more

10-Day Weather Forecast

Advertisements
Track Severe Weather on mobile